Rumpus Ridge, South Dakota
Current Conditions -  °F | °C
As of 5:56 PM on Saturday 25 Oct 2014 (Local Time) from KFSD Reporting Station
Clear Clear  
Wind Chill: 59°   Ceiling: Unl
Heat Index: 59°   Visibility: 10mi
Dew Point: 39°   Wind: 7mph
Humidity: 48%   Direction: 60°ENE
Pressure: 30.07"   Gusts: NA
Location:  43.5855°N, 97.3085°W
Report Text: KFSD 252256Z 06006KT 10SM CLR 15/04 A3007 RMK AO2 SLP188 T01500039
Loading
Personal Weather Stations






























Interactive Weather Map
Tropical Storm Tracking
New forecast layout! Learn more

10-Day Weather Forecast

Advertisements
Track Severe Weather on mobile